createdAt,value
2023-04-09T00:01:23.586Z,47.70
2023-04-09T00:03:51.668Z,47.90
2023-04-09T00:06:19.610Z,45.85
2023-04-09T00:08:49.143Z,45.85
2023-04-09T00:11:17.215Z,45.50
2023-04-09T00:13:45.153Z,45.67
2023-04-09T00:16:13.113Z,45.50
2023-04-09T00:18:41.398Z,44.30
2023-04-09T00:21:09.557Z,44.40
2023-04-09T00:23:37.525Z,47.10
2023-04-09T00:26:06.885Z,46.70
2023-04-09T00:28:34.827Z,45.70
2023-04-09T00:31:02.854Z,48.42
2023-04-09T00:33:31.332Z,47.08
2023-04-09T00:35:59.319Z,45.40
2023-04-09T00:38:27.338Z,45.80
2023-04-09T00:40:55.202Z,50.63
2023-04-09T00:43:24.530Z,43.80
2023-04-09T00:45:52.580Z,45.25
2023-04-09T00:48:20.797Z,47.30
2023-04-09T00:50:48.706Z,45.67
2023-04-09T00:53:18.071Z,47.97
2023-04-09T00:55:46.840Z,48.50
2023-04-09T00:58:15.368Z,47.45
2023-04-09T01:00:44.723Z,45.23
2023-04-09T01:03:13.106Z,45.80
2023-04-09T01:05:50.082Z,47.30
2023-04-09T01:08:31.335Z,45.78
2023-04-09T01:11:09.101Z,47.42
2023-04-09T01:13:46.422Z,45.33
2023-04-09T01:16:19.524Z,44.80
2023-04-09T01:18:54.439Z,45.40
2023-04-09T01:21:27.470Z,47.47
2023-04-09T01:24:03.847Z,45.10
2023-04-09T01:26:46.119Z,45.80
2023-04-09T01:29:17.742Z,46.30
2023-04-09T01:31:46.366Z,46.03
2023-04-09T01:34:15.255Z,46.10
2023-04-09T01:36:46.199Z,45.15
2023-04-09T01:39:14.235Z,46.30
2023-04-09T01:41:43.461Z,46.08
2023-04-09T01:44:13.486Z,48.50
2023-04-09T01:46:43.249Z,46.60
2023-04-09T01:49:12.059Z,45.85
2023-04-09T01:51:40.384Z,45.60
2023-04-09T01:54:08.318Z,45.03
2023-04-09T01:56:43.401Z,48.60
2023-04-09T01:59:11.402Z,46.30
2023-04-09T02:01:46.458Z,47.70
2023-04-09T02:04:21.164Z,45.25
2023-04-09T02:06:56.410Z,46.97
2023-04-09T02:09:25.990Z,46.60
2023-04-09T02:11:54.873Z,45.80
2023-04-09T02:14:26.521Z,46.65
2023-04-09T02:16:56.369Z,45.40
2023-04-09T02:19:24.366Z,45.30
2023-04-09T02:21:52.451Z,46.90
2023-04-09T02:24:20.335Z,47.30
2023-04-09T02:26:48.260Z,46.42
2023-04-09T02:29:16.154Z,46.17
2023-04-09T02:31:45.159Z,45.43
2023-04-09T02:34:14.509Z,44.40
2023-04-09T02:36:42.396Z,44.67
2023-04-09T02:39:10.265Z,46.45
2023-04-09T02:41:38.193Z,46.70
2023-04-09T02:44:06.354Z,45.15
2023-04-09T02:46:34.358Z,47.47
2023-04-09T02:49:02.350Z,44.90
2023-04-09T02:51:31.796Z,45.67
2023-04-09T02:53:59.801Z,47.20
2023-04-09T02:56:27.780Z,45.95
2023-04-09T02:58:55.725Z,47.22
2023-04-09T03:01:23.749Z,46.90
2023-04-09T03:03:51.922Z,45.00
2023-04-09T03:06:19.901Z,47.00
2023-04-09T03:08:49.374Z,46.40
2023-04-09T03:11:17.362Z,45.03
2023-04-09T03:13:45.308Z,45.88
2023-04-09T03:16:13.234Z,45.10
2023-04-09T03:18:41.173Z,47.25
2023-04-09T03:21:11.253Z,43.80
2023-04-09T03:23:40.250Z,45.78
2023-04-09T03:26:09.593Z,45.50
2023-04-09T03:28:37.545Z,45.63
2023-04-09T03:31:05.594Z,46.90
2023-04-09T03:33:33.603Z,44.70
2023-04-09T03:36:01.517Z,46.10
2023-04-09T03:38:29.476Z,45.00
2023-04-09T03:40:57.745Z,45.53
2023-04-09T03:43:27.396Z,46.90
2023-04-09T03:45:55.351Z,45.17
2023-04-09T03:48:23.212Z,44.70
2023-04-09T03:50:51.121Z,44.30
2023-04-09T03:53:19.027Z,44.30
2023-04-09T03:55:46.884Z,43.90
2023-04-09T03:58:14.741Z,43.80
2023-04-09T04:00:44.333Z,45.35
2023-04-09T04:03:14.733Z,41.50
2023-04-09T04:05:42.833Z,44.75
2023-04-09T04:08:10.799Z,43.83
2023-04-09T04:10:38.712Z,46.63
2023-04-09T04:13:08.283Z,43.63
2023-04-09T04:15:41.061Z,43.72
2023-04-09T04:18:10.639Z,44.40
2023-04-09T04:20:39.373Z,42.00
2023-04-09T04:23:07.563Z,43.00
2023-04-09T04:25:35.453Z,43.88
2023-04-09T04:28:03.391Z,45.97
2023-04-09T04:30:31.303Z,45.00
2023-04-09T04:32:59.291Z,46.00
2023-04-09T04:35:28.567Z,45.35
2023-04-09T04:37:56.987Z,42.50
2023-04-09T04:40:25.052Z,41.42
2023-04-09T04:42:52.927Z,44.53
2023-04-09T04:45:20.871Z,43.20
2023-04-09T04:47:48.809Z,45.78
2023-04-09T04:50:16.727Z,44.53
2023-04-09T04:52:46.030Z,45.00
2023-04-09T04:55:14.049Z,45.10
2023-04-09T04:57:42.086Z,42.55
2023-04-09T05:00:10.922Z,45.92
2023-04-09T05:02:39.067Z,47.47
2023-04-09T05:05:07.712Z,44.08
2023-04-09T05:07:35.589Z,46.85
2023-04-09T05:10:05.172Z,51.97
2023-04-09T05:12:33.067Z,49.35
2023-04-09T05:15:01.023Z,47.42
2023-04-09T05:17:29.036Z,47.13
2023-04-09T05:19:57.844Z,46.20
2023-04-09T05:22:25.807Z,44.90
2023-04-09T05:24:53.704Z,43.72
2023-04-09T05:27:25.735Z,45.20
2023-04-09T05:29:53.666Z,46.07
2023-04-09T05:32:21.869Z,44.75
2023-04-09T05:34:49.687Z,46.72
2023-04-09T05:37:17.589Z,44.75
2023-04-09T05:39:45.456Z,46.63
2023-04-09T05:42:13.398Z,42.20
2023-04-09T05:44:42.655Z,48.30
2023-04-09T05:47:10.496Z,46.38
2023-04-09T05:49:38.460Z,64.85
2023-04-09T05:52:06.841Z,67.38
2023-04-09T05:54:36.447Z,71.50
2023-04-09T05:57:04.481Z,48.97
2023-04-09T05:59:32.376Z,46.75
2023-04-09T06:02:01.631Z,48.20
2023-04-09T06:04:29.527Z,49.50
2023-04-09T06:07:00.104Z,45.05
2023-04-09T06:09:28.345Z,43.00
2023-04-09T06:11:57.620Z,43.70
2023-04-09T06:14:25.658Z,42.10
2023-04-09T06:16:53.562Z,42.40
2023-04-09T06:19:23.760Z,48.33
2023-04-09T06:21:51.656Z,49.05
2023-04-09T06:24:19.534Z,45.20
2023-04-09T06:26:47.464Z,43.40
2023-04-09T06:29:15.564Z,47.30
2023-04-09T06:31:43.600Z,44.47
2023-04-09T06:34:12.015Z,45.72
2023-04-09T06:36:41.335Z,42.90
2023-04-09T06:39:09.288Z,46.25
2023-04-09T06:41:37.212Z,46.10
2023-04-09T06:44:05.252Z,46.03
2023-04-09T06:46:33.205Z,43.00
2023-04-09T06:49:01.114Z,42.10
2023-04-09T06:51:28.996Z,44.78
2023-04-09T06:53:58.344Z,43.30
2023-04-09T06:56:26.437Z,45.58
2023-04-09T06:58:54.364Z,48.90
2023-04-09T07:01:22.307Z,46.05
2023-04-09T07:03:50.391Z,46.85
2023-04-09T07:06:18.459Z,47.45
2023-04-09T07:08:46.434Z,47.72
2023-04-09T07:11:16.980Z,47.45
2023-04-09T07:13:44.929Z,45.22
2023-04-09T07:16:12.882Z,48.42
2023-04-09T07:18:40.991Z,44.20
2023-04-09T07:21:08.973Z,47.05
2023-04-09T07:23:37.233Z,44.63
2023-04-09T07:26:05.346Z,50.40
2023-04-09T07:28:34.975Z,48.33
2023-04-09T07:31:03.810Z,45.88
2023-04-09T07:33:32.059Z,45.70
2023-04-09T07:36:00.089Z,47.47
2023-04-09T07:38:29.854Z,45.60
2023-04-09T07:40:58.399Z,46.60
2023-04-09T07:43:26.405Z,46.03
2023-04-09T07:45:55.810Z,45.87
2023-04-09T07:48:23.719Z,48.38
2023-04-09T07:50:51.628Z,47.55
2023-04-09T07:53:19.587Z,44.65
2023-04-09T07:55:47.572Z,45.80
2023-04-09T07:58:15.722Z,47.13
2023-04-09T08:00:43.665Z,48.22
2023-04-09T08:03:13.888Z,46.30
2023-04-09T08:05:41.974Z,53.28
2023-04-09T08:08:10.097Z,50.67
2023-04-09T08:10:38.110Z,46.10
2023-04-09T08:13:06.010Z,48.08
2023-04-09T08:15:34.145Z,46.90
2023-04-09T08:18:03.298Z,46.63
2023-04-09T08:20:33.291Z,46.33
2023-04-09T08:23:01.143Z,47.42
2023-04-09T08:25:32.260Z,45.75
2023-04-09T08:28:14.929Z,51.47
2023-04-09T08:30:43.384Z,46.95
2023-04-09T08:33:11.456Z,47.80
2023-04-09T08:35:41.419Z,47.38
2023-04-09T08:38:09.327Z,48.00
2023-04-09T08:40:37.693Z,46.20
2023-04-09T08:43:07.173Z,54.28
2023-04-09T08:45:35.814Z,50.23
2023-04-09T08:48:04.751Z,46.55
2023-04-09T08:50:33.829Z,48.70
2023-04-09T08:53:06.606Z,51.33
2023-04-09T08:55:37.389Z,49.13
2023-04-09T08:58:07.260Z,48.65
2023-04-09T09:00:35.297Z,48.88
2023-04-09T09:03:05.233Z,50.97
2023-04-09T09:05:41.051Z,63.75
2023-04-09T09:08:12.327Z,83.80
2023-04-09T09:10:42.025Z,57.20
2023-04-09T09:13:21.352Z,61.72
2023-04-09T09:15:50.672Z,51.55
2023-04-09T09:18:19.469Z,65.60
2023-04-09T09:20:47.463Z,51.20
2023-04-09T09:23:16.762Z,54.42
2023-04-09T09:25:44.753Z,67.75
2023-04-09T09:28:13.595Z,61.33
2023-04-09T09:30:41.911Z,55.45
2023-04-09T09:33:11.592Z,50.70
2023-04-09T09:35:50.142Z,53.53
2023-04-09T09:38:20.175Z,54.55
2023-04-09T09:40:48.827Z,58.70
2023-04-09T09:43:16.738Z,69.32
2023-04-09T09:45:47.756Z,55.38
2023-04-09T09:48:16.530Z,59.70
2023-04-09T09:50:46.666Z,57.20
2023-04-09T09:53:18.688Z,76.28
2023-04-09T09:55:53.427Z,65.40
2023-04-09T09:58:25.712Z,60.58
2023-04-09T10:00:54.432Z,72.57
2023-04-09T10:03:24.380Z,85.57
2023-04-09T10:05:54.020Z,76.03
2023-04-09T10:08:23.385Z,62.45
2023-04-09T10:10:53.861Z,74.15
2023-04-09T10:13:26.933Z,64.20
2023-04-09T10:15:55.651Z,50.70
2023-04-09T10:18:23.699Z,52.10
2023-04-09T10:20:58.157Z,58.90
2023-04-09T10:23:34.971Z,72.68
2023-04-09T10:26:04.576Z,65.15
2023-04-09T10:28:32.549Z,54.72
2023-04-09T10:31:01.369Z,52.60
2023-04-09T10:33:29.610Z,53.23
2023-04-09T10:36:01.825Z,60.63
2023-04-09T10:38:37.637Z,55.20
2023-04-09T10:41:17.145Z,57.08
2023-04-09T10:43:48.025Z,72.95
2023-04-09T10:46:29.716Z,75.30
2023-04-09T10:49:19.449Z,55.30
2023-04-09T10:51:53.074Z,72.75
2023-04-09T10:54:49.240Z,52.28
2023-04-09T10:57:20.772Z,66.68
2023-04-09T10:59:50.598Z,57.38
2023-04-09T11:02:50.288Z,61.75
2023-04-09T11:05:41.297Z,60.50
2023-04-09T11:08:10.740Z,52.40
2023-04-09T11:10:39.496Z,54.00
2023-04-09T11:13:11.977Z,52.53
2023-04-09T11:15:40.351Z,54.90
2023-04-09T11:18:09.755Z,62.42
2023-04-09T11:20:37.885Z,64.47
2023-04-09T11:23:06.853Z,52.08
2023-04-09T11:25:35.735Z,116.72
2023-04-09T11:28:06.177Z,73.53
2023-04-09T11:30:36.154Z,73.07
2023-04-09T11:33:04.613Z,113.82
2023-04-09T11:35:36.521Z,54.03
2023-04-09T11:38:08.787Z,55.80
2023-04-09T11:40:37.108Z,60.92
2023-04-09T11:43:05.027Z,58.63
2023-04-09T11:45:35.306Z,71.55
2023-04-09T11:48:03.758Z,57.83
2023-04-09T11:50:33.097Z,55.35
2023-04-09T11:53:01.372Z,64.93
2023-04-09T11:55:30.608Z,77.35
2023-04-09T11:58:00.876Z,96.20
2023-04-09T12:00:29.441Z,75.05
2023-04-09T12:03:04.077Z,82.25
2023-04-09T12:05:34.220Z,75.60
2023-04-09T12:08:04.960Z,76.65
2023-04-09T12:10:34.369Z,64.63
2023-04-09T12:13:04.239Z,66.60
2023-04-09T12:15:34.715Z,60.13
2023-04-09T12:18:04.507Z,65.90
2023-04-09T12:20:34.647Z,71.95
2023-04-09T12:23:04.430Z,71.40
2023-04-09T12:25:33.314Z,68.80
2023-04-09T12:28:01.542Z,74.78
2023-04-09T12:30:29.670Z,67.97
2023-04-09T12:32:57.687Z,70.45
2023-04-09T12:35:27.053Z,68.75
2023-04-09T12:37:54.989Z,62.23
2023-04-09T12:40:23.100Z,69.25
2023-04-09T12:42:51.548Z,83.63
2023-04-09T12:45:20.926Z,74.00
2023-04-09T12:47:48.945Z,68.32
2023-04-09T12:50:17.521Z,66.00
2023-04-09T12:52:47.387Z,70.78
2023-04-09T12:55:16.006Z,92.00
2023-04-09T12:57:45.221Z,56.58
2023-04-09T13:00:14.276Z,75.35
2023-04-09T13:02:42.416Z,68.78
2023-04-09T13:05:10.769Z,82.32
2023-04-09T13:07:39.084Z,75.70
2023-04-09T13:10:10.232Z,60.17
2023-04-09T13:12:38.175Z,73.80
2023-04-09T13:15:07.125Z,57.88
2023-04-09T13:17:35.064Z,65.35
2023-04-09T13:20:03.192Z,61.70
2023-04-09T13:22:31.132Z,66.25
2023-04-09T13:24:58.956Z,58.55
2023-04-09T13:27:28.199Z,71.20
2023-04-09T13:29:55.988Z,65.35
2023-04-09T13:32:24.320Z,72.40
2023-04-09T13:34:53.639Z,63.40
2023-04-09T13:37:21.498Z,70.00
2023-04-09T13:39:49.293Z,75.53
2023-04-09T13:42:17.129Z,73.70
2023-04-09T13:44:46.629Z,61.60
2023-04-09T13:47:15.851Z,76.75
2023-04-09T13:49:44.355Z,74.95
2023-04-09T13:52:12.651Z,84.95
2023-04-09T13:54:40.505Z,61.13
2023-04-09T13:57:08.360Z,62.65
2023-04-09T13:59:36.196Z,60.05
2023-04-09T14:02:05.501Z,82.90
2023-04-09T14:04:33.455Z,78.43
2023-04-09T14:07:01.419Z,73.45
2023-04-09T14:09:29.367Z,70.78
2023-04-09T14:11:57.303Z,76.78
2023-04-09T14:14:25.171Z,62.90
2023-04-09T14:16:53.287Z,71.43
2023-04-09T14:19:22.463Z,68.20
2023-04-09T14:21:53.061Z,81.60
2023-04-09T14:24:22.987Z,75.38
2023-04-09T14:26:52.979Z,76.75
2023-04-09T14:29:21.943Z,69.60
2023-04-09T14:31:50.049Z,62.65
2023-04-09T14:34:18.017Z,64.80
2023-04-09T14:36:47.235Z,70.28
2023-04-09T14:39:15.594Z,77.95
2023-04-09T14:41:43.504Z,78.20
2023-04-09T14:44:11.473Z,72.00
2023-04-09T14:46:39.412Z,99.13
2023-04-09T14:49:07.427Z,91.30
2023-04-09T14:51:35.430Z,70.75
2023-04-09T14:54:04.677Z,82.55
2023-04-09T14:56:32.488Z,60.80
2023-04-09T14:59:00.514Z,67.15
2023-04-09T15:01:28.574Z,68.30
2023-04-09T15:03:56.975Z,72.90
2023-04-09T15:06:24.870Z,72.53
2023-04-09T15:08:52.812Z,65.88
2023-04-09T15:11:23.024Z,72.68
2023-04-09T15:13:52.048Z,73.60
2023-04-09T15:16:24.064Z,59.00
2023-04-09T15:18:52.686Z,69.55
2023-04-09T15:21:20.829Z,63.03
2023-04-09T15:23:50.921Z,67.05
2023-04-09T15:26:18.789Z,80.32
2023-04-09T15:28:47.960Z,70.78
2023-04-09T15:31:15.891Z,74.15
2023-04-09T15:33:44.663Z,70.68
2023-04-09T15:36:12.916Z,79.68
2023-04-09T15:38:40.843Z,64.97
2023-04-09T15:41:08.784Z,79.40
2023-04-09T15:43:36.667Z,66.80
2023-04-09T15:46:10.625Z,100.80
2023-04-09T15:48:38.895Z,92.10
2023-04-09T15:51:07.165Z,72.90
2023-04-09T15:53:35.123Z,63.50
2023-04-09T15:56:03.620Z,52.33
2023-04-09T15:58:31.441Z,66.03
2023-04-09T16:00:59.396Z,70.73
2023-04-09T16:03:28.594Z,72.90
2023-04-09T16:05:56.518Z,66.43
2023-04-09T16:08:24.298Z,68.35
2023-04-09T16:10:53.333Z,54.80
2023-04-09T16:13:21.174Z,61.10
2023-04-09T16:15:49.338Z,76.25
2023-04-09T16:18:17.234Z,55.92
2023-04-09T16:20:46.577Z,92.53
2023-04-09T16:23:14.448Z,73.55
2023-04-09T16:25:42.258Z,66.82
2023-04-09T16:28:10.262Z,63.80
2023-04-09T16:30:38.260Z,61.83
2023-04-09T16:33:08.351Z,71.03
2023-04-09T16:35:38.859Z,57.15
2023-04-09T16:38:08.887Z,60.60
2023-04-09T16:40:36.774Z,55.80
2023-04-09T16:43:05.001Z,64.85
2023-04-09T16:45:32.989Z,58.33
2023-04-09T16:48:00.944Z,59.53
2023-04-09T16:50:28.895Z,69.00
2023-04-09T16:52:56.944Z,72.13
2023-04-09T16:55:26.517Z,76.50
2023-04-09T16:57:55.871Z,73.07
2023-04-09T17:00:23.894Z,78.78
2023-04-09T17:02:52.019Z,87.97
2023-04-09T17:05:20.350Z,75.47
2023-04-09T17:07:48.228Z,75.20
2023-04-09T17:10:16.166Z,56.27
2023-04-09T17:12:45.505Z,49.47
2023-04-09T17:15:13.341Z,49.23
2023-04-09T17:17:41.311Z,52.93
2023-04-09T17:20:10.047Z,65.03
2023-04-09T17:22:39.161Z,71.50
2023-04-09T17:25:08.457Z,60.83
2023-04-09T17:27:36.414Z,62.72
2023-04-09T17:30:06.581Z,71.25
2023-04-09T17:32:40.485Z,48.83
2023-04-09T17:35:09.259Z,50.50
2023-04-09T17:37:38.122Z,52.60
2023-04-09T17:40:07.316Z,53.17
2023-04-09T17:42:35.330Z,63.93
2023-04-09T17:45:04.573Z,46.97
2023-04-09T17:47:33.893Z,66.70
2023-04-09T17:50:02.260Z,64.10
2023-04-09T17:52:36.495Z,49.47
2023-04-09T17:55:07.202Z,46.43
2023-04-09T17:57:36.800Z,47.70
2023-04-09T18:00:05.442Z,46.30
2023-04-09T18:02:35.091Z,108.03
2023-04-09T18:05:04.462Z,46.37
2023-04-09T18:07:34.137Z,46.00
2023-04-09T18:10:02.527Z,46.20
2023-04-09T18:12:30.568Z,62.13
2023-04-09T18:14:58.542Z,47.00
2023-04-09T18:17:27.156Z,62.33
2023-04-09T18:19:58.166Z,46.87
2023-04-09T18:22:26.895Z,45.33
2023-04-09T18:24:54.962Z,55.63
2023-04-09T18:27:22.897Z,49.90
2023-04-09T18:29:50.890Z,47.07
2023-04-09T18:32:19.402Z,47.33
2023-04-09T18:34:47.615Z,47.47
2023-04-09T18:37:17.235Z,45.17
2023-04-09T18:39:46.255Z,46.37
2023-04-09T18:42:14.310Z,48.60
2023-04-09T18:44:42.384Z,72.07
2023-04-09T18:47:11.414Z,46.30
2023-04-09T18:49:39.338Z,63.80
2023-04-09T18:52:08.953Z,68.87
2023-04-09T18:54:38.803Z,45.87
2023-04-09T18:57:07.494Z,45.90
2023-04-09T18:59:35.856Z,45.27
2023-04-09T19:02:04.939Z,81.30
2023-04-09T19:04:36.320Z,54.40
2023-04-09T19:07:04.843Z,45.53
2023-04-09T19:09:33.610Z,52.25
2023-04-09T19:12:02.952Z,73.17
2023-04-09T19:14:31.191Z,49.73
2023-04-09T19:17:00.048Z,45.23
2023-04-09T19:19:29.264Z,48.33
2023-04-09T19:21:57.608Z,54.47
2023-04-09T19:24:26.165Z,47.87
2023-04-09T19:26:54.124Z,57.53
2023-04-09T19:29:24.270Z,44.67
2023-04-09T19:31:52.210Z,45.27
2023-04-09T19:34:20.458Z,56.60
2023-04-09T19:36:48.587Z,55.37
2023-04-09T19:39:16.926Z,44.00
2023-04-09T19:41:45.044Z,44.83
2023-04-09T19:44:12.982Z,47.83
2023-04-09T19:46:42.374Z,49.87
2023-04-09T19:49:10.272Z,52.07
2023-04-09T19:51:38.193Z,45.60
2023-04-09T19:54:06.254Z,44.90
2023-04-09T19:56:35.452Z,46.10
2023-04-09T19:59:03.366Z,45.43
2023-04-09T20:01:31.567Z,46.67
2023-04-09T20:04:01.513Z,52.87
2023-04-09T20:06:30.719Z,44.50
2023-04-09T20:08:59.362Z,44.47
2023-04-09T20:11:27.235Z,47.00
2023-04-09T20:13:56.766Z,44.77
2023-04-09T20:16:24.845Z,43.90
2023-04-09T20:18:53.187Z,54.38
2023-04-09T20:21:23.300Z,44.77
2023-04-09T20:23:51.342Z,45.77
2023-04-09T20:26:19.290Z,44.93
2023-04-09T20:28:48.455Z,45.63
2023-04-09T20:31:16.975Z,43.80
2023-04-09T20:33:44.898Z,43.67
2023-04-09T20:36:16.673Z,44.73
2023-04-09T20:38:46.369Z,47.90
2023-04-09T20:41:14.342Z,45.55
2023-04-09T20:43:42.228Z,44.47
2023-04-09T20:46:10.491Z,47.33
2023-04-09T20:48:38.502Z,45.63
2023-04-09T20:51:10.940Z,45.58
2023-04-09T20:53:39.487Z,49.47
2023-04-09T20:56:09.397Z,48.63
2023-04-09T20:58:37.426Z,47.40
2023-04-09T21:01:06.972Z,49.23
2023-04-09T21:03:35.936Z,78.93
2023-04-09T21:06:04.332Z,54.17
2023-04-09T21:08:32.333Z,52.95
2023-04-09T21:11:00.375Z,62.73
2023-04-09T21:13:30.929Z,74.55
2023-04-09T21:16:01.590Z,46.40
2023-04-09T21:18:29.543Z,61.63
2023-04-09T21:20:57.390Z,55.57
2023-04-09T21:23:25.566Z,57.13
2023-04-09T21:25:53.560Z,45.60
2023-04-09T21:28:21.488Z,46.40
2023-04-09T21:30:50.788Z,46.13
2023-04-09T21:33:19.331Z,48.35
2023-04-09T21:35:47.219Z,44.37
2023-04-09T21:38:15.214Z,45.78
2023-04-09T21:40:43.213Z,45.17
2023-04-09T21:43:11.136Z,43.97
2023-04-09T21:45:39.273Z,45.30
2023-04-09T21:48:09.168Z,44.25
2023-04-09T21:50:37.238Z,50.77
2023-04-09T21:53:05.137Z,46.05
2023-04-09T21:55:33.053Z,47.47
2023-04-09T21:58:01.062Z,44.73
2023-04-09T22:00:29.491Z,46.30
2023-04-09T22:03:01.693Z,43.33
2023-04-09T22:05:34.263Z,44.10
2023-04-09T22:08:02.203Z,46.20
2023-04-09T22:10:30.222Z,47.47
2023-04-09T22:12:58.136Z,44.43
2023-04-09T22:15:26.022Z,44.70
2023-04-09T22:17:54.068Z,43.90
2023-04-09T22:20:24.319Z,46.33
2023-04-09T22:22:54.267Z,46.70
2023-04-09T22:25:22.444Z,42.80
2023-04-09T22:27:53.930Z,43.60
2023-04-09T22:30:23.599Z,44.75
2023-04-09T22:32:51.787Z,43.55
2023-04-09T22:35:20.006Z,44.28
2023-04-09T22:37:47.923Z,47.20
2023-04-09T22:40:17.787Z,44.43
2023-04-09T22:42:47.841Z,44.47
2023-04-09T22:45:15.991Z,42.27
2023-04-09T22:47:43.996Z,43.33
2023-04-09T22:50:13.394Z,43.17
2023-04-09T22:52:41.346Z,43.63
2023-04-09T22:55:10.924Z,44.70
2023-04-09T22:57:42.740Z,45.37
2023-04-09T23:00:11.082Z,44.60
2023-04-09T23:02:39.134Z,45.63
2023-04-09T23:05:08.929Z,47.13
2023-04-09T23:07:36.853Z,45.80
2023-04-09T23:10:04.843Z,43.00
2023-04-09T23:12:32.714Z,45.40
2023-04-09T23:15:02.254Z,46.58
2023-04-09T23:17:30.342Z,46.47
2023-04-09T23:19:58.371Z,45.38
2023-04-09T23:22:27.157Z,47.10
2023-04-09T23:24:55.107Z,45.83
2023-04-09T23:27:28.142Z,46.00
2023-04-09T23:29:57.033Z,46.90
2023-04-09T23:32:26.318Z,47.85
2023-04-09T23:34:54.246Z,47.00
2023-04-09T23:37:22.131Z,46.92
2023-04-09T23:39:50.294Z,45.60
2023-04-09T23:42:18.191Z,56.22
2023-04-09T23:44:46.638Z,46.00
2023-04-09T23:47:14.728Z,46.50
2023-04-09T23:49:44.944Z,46.28
2023-04-09T23:52:12.818Z,46.92
2023-04-09T23:54:40.687Z,46.50
2023-04-09T23:57:08.586Z,46.70
2023-04-09T23:59:36.479Z,47.15
